sensor_id;sensor_type;location;lat;lon;timestamp;pressure;altitude;pressure_sealevel;temperature;humidity
76660;BME280;65579;45.534;6.212;2023-03-01T00:01:52;98522.69;;;0.29;46.05
76660;BME280;65579;45.534;6.212;2023-03-01T00:04:18;98520.78;;;-0.93;47.00
76660;BME280;65579;45.534;6.212;2023-03-01T00:06:43;98520.25;;;-0.56;46.52
76660;BME280;65579;45.534;6.212;2023-03-01T00:09:09;98517.18;;;-0.54;46.98
76660;BME280;65579;45.534;6.212;2023-03-01T00:11:34;98519.27;;;-0.29;46.55
76660;BME280;65579;45.534;6.212;2023-03-01T00:14:00;98519.43;;;-0.24;46.07
76660;BME280;65579;45.534;6.212;2023-03-01T00:16:26;98515.98;;;-0.34;45.85
76660;BME280;65579;45.534;6.212;2023-03-01T00:18:51;98512.75;;;-0.03;45.08
76660;BME280;65579;45.534;6.212;2023-03-01T00:21:17;98515.30;;;0.38;44.39
76660;BME280;65579;45.534;6.212;2023-03-01T00:23:41;98516.36;;;-0.34;45.38
76660;BME280;65579;45.534;6.212;2023-03-01T00:26:08;98513.98;;;-0.76;47.73
76660;BME280;65579;45.534;6.212;2023-03-01T00:28:32;98514.78;;;-0.89;48.28
76660;BME280;65579;45.534;6.212;2023-03-01T00:31:03;98514.70;;;-0.87;47.31
76660;BME280;65579;45.534;6.212;2023-03-01T00:33:22;98514.08;;;-0.87;47.07
76660;BME280;65579;45.534;6.212;2023-03-01T00:35:48;98510.88;;;-1.17;47.14
76660;BME280;65579;45.534;6.212;2023-03-01T00:38:13;98515.83;;;-1.11;46.55
76660;BME280;65579;45.534;6.212;2023-03-01T00:40:39;98515.35;;;-1.07;47.09
76660;BME280;65579;45.534;6.212;2023-03-01T00:43:05;98517.16;;;-0.88;46.93
76660;BME280;65579;45.534;6.212;2023-03-01T00:45:30;98517.34;;;-0.95;46.89
76660;BME280;65579;45.534;6.212;2023-03-01T00:47:56;98512.66;;;-0.54;46.33
76660;BME280;65579;45.534;6.212;2023-03-01T00:50:21;98513.91;;;-0.70;45.40
76660;BME280;65579;45.534;6.212;2023-03-01T00:52:47;98511.68;;;-1.31;46.84
76660;BME280;65579;45.534;6.212;2023-03-01T00:55:12;98506.25;;;-1.28;47.51
76660;BME280;65579;45.534;6.212;2023-03-01T00:57:37;98511.63;;;-1.80;48.43
76660;BME280;65579;45.534;6.212;2023-03-01T01:00:05;98506.96;;;-1.39;47.60
76660;BME280;65579;45.534;6.212;2023-03-01T01:02:28;98504.80;;;-0.79;46.79
76660;BME280;65579;45.534;6.212;2023-03-01T01:04:53;98503.62;;;-1.05;46.76
76660;BME280;65579;45.534;6.212;2023-03-01T01:07:19;98501.20;;;-0.72;46.89
76660;BME280;65579;45.534;6.212;2023-03-01T01:09:44;98495.28;;;-0.91;47.04
76660;BME280;65579;45.534;6.212;2023-03-01T01:12:10;98494.09;;;-0.61;46.33
76660;BME280;65579;45.534;6.212;2023-03-01T01:14:35;98493.53;;;-1.10;46.13
76660;BME280;65579;45.534;6.212;2023-03-01T01:17:01;98490.01;;;-0.94;47.34
76660;BME280;65579;45.534;6.212;2023-03-01T01:19:26;98485.90;;;-1.14;47.35
76660;BME280;65579;45.534;6.212;2023-03-01T01:21:51;98477.85;;;-0.65;46.49
76660;BME280;65579;45.534;6.212;2023-03-01T01:24:17;98469.68;;;-0.86;46.56
76660;BME280;65579;45.534;6.212;2023-03-01T01:26:42;98471.81;;;-0.81;46.33
76660;BME280;65579;45.534;6.212;2023-03-01T01:29:08;98474.90;;;-1.20;46.15
76660;BME280;65579;45.534;6.212;2023-03-01T01:31:34;98475.03;;;-1.22;46.69
76660;BME280;65579;45.534;6.212;2023-03-01T01:34:00;98473.28;;;-0.90;46.94
76660;BME280;65579;45.534;6.212;2023-03-01T01:36:24;98469.57;;;-0.81;46.51
76660;BME280;65579;45.534;6.212;2023-03-01T01:38:50;98466.55;;;-1.02;46.47
76660;BME280;65579;45.534;6.212;2023-03-01T01:41:16;98469.42;;;-0.97;46.68
76660;BME280;65579;45.534;6.212;2023-03-01T01:43:43;98464.00;;;-0.77;46.53
76660;BME280;65579;45.534;6.212;2023-03-01T01:46:15;98462.52;;;-1.03;46.67
76660;BME280;65579;45.534;6.212;2023-03-01T01:48:38;98460.09;;;-0.74;46.60
76660;BME280;65579;45.534;6.212;2023-03-01T01:50:59;98454.86;;;-1.33;47.83
76660;BME280;65579;45.534;6.212;2023-03-01T01:53:22;98451.95;;;-0.91;46.58
76660;BME280;65579;45.534;6.212;2023-03-01T01:55:55;98453.87;;;-1.17;47.37
76660;BME280;65579;45.534;6.212;2023-03-01T01:58:17;98458.42;;;-1.07;47.30
76660;BME280;65579;45.534;6.212;2023-03-01T02:00:39;98454.74;;;-0.49;46.73
76660;BME280;65579;45.534;6.212;2023-03-01T02:03:08;98455.62;;;-0.53;46.09
76660;BME280;65579;45.534;6.212;2023-03-01T02:05:37;98450.72;;;-1.06;46.50
76660;BME280;65579;45.534;6.212;2023-03-01T02:07:56;98450.04;;;-1.30;47.52
76660;BME280;65579;45.534;6.212;2023-03-01T02:10:21;98449.10;;;-0.65;46.12
76660;BME280;65579;45.534;6.212;2023-03-01T02:12:46;98446.03;;;-0.88;46.17
76660;BME280;65579;45.534;6.212;2023-03-01T02:15:11;98441.09;;;-0.49;46.42
76660;BME280;65579;45.534;6.212;2023-03-01T02:17:37;98434.85;;;0.15;44.15
76660;BME280;65579;45.534;6.212;2023-03-01T02:20:10;98431.49;;;-0.28;45.47
76660;BME280;65579;45.534;6.212;2023-03-01T02:22:30;98428.43;;;0.40;44.27
76660;BME280;65579;45.534;6.212;2023-03-01T02:25:00;98425.64;;;0.26;44.34
76660;BME280;65579;45.534;6.212;2023-03-01T02:27:20;98420.51;;;-0.98;46.02
76660;BME280;65579;45.534;6.212;2023-03-01T02:29:43;98415.97;;;-0.78;47.34
76660;BME280;65579;45.534;6.212;2023-03-01T02:32:09;98412.25;;;-1.20;47.79
76660;BME280;65579;45.534;6.212;2023-03-01T02:34:35;98412.88;;;-1.41;47.90
76660;BME280;65579;45.534;6.212;2023-03-01T02:37:02;98412.21;;;-1.40;47.70
76660;BME280;65579;45.534;6.212;2023-03-01T02:39:28;98406.83;;;-0.83;46.57
76660;BME280;65579;45.534;6.212;2023-03-01T02:41:53;98403.56;;;-0.97;46.66
76660;BME280;65579;45.534;6.212;2023-03-01T02:44:17;98403.24;;;-1.07;47.91
76660;BME280;65579;45.534;6.212;2023-03-01T02:46:43;98400.88;;;-1.32;48.32
76660;BME280;65579;45.534;6.212;2023-03-01T02:49:17;98397.32;;;-1.52;49.20
76660;BME280;65579;45.534;6.212;2023-03-01T02:51:43;98396.32;;;-1.55;49.42
76660;BME280;65579;45.534;6.212;2023-03-01T02:54:08;98398.89;;;-1.49;50.06
76660;BME280;65579;45.534;6.212;2023-03-01T02:56:25;98393.60;;;-1.28;49.55
76660;BME280;65579;45.534;6.212;2023-03-01T02:58:50;98385.17;;;-0.85;48.41
76660;BME280;65579;45.534;6.212;2023-03-01T03:01:16;98381.57;;;-0.92;48.43
76660;BME280;65579;45.534;6.212;2023-03-01T03:03:42;98384.94;;;-0.95;47.56
76660;BME280;65579;45.534;6.212;2023-03-01T03:06:07;98383.37;;;-0.96;47.54
76660;BME280;65579;45.534;6.212;2023-03-01T03:08:32;98380.93;;;-1.45;48.29
76660;BME280;65579;45.534;6.212;2023-03-01T03:10:58;98375.05;;;-1.67;48.40
76660;BME280;65579;45.534;6.212;2023-03-01T03:13:23;98374.64;;;-1.73;49.05
76660;BME280;65579;45.534;6.212;2023-03-01T03:15:49;98371.35;;;-1.38;48.58
76660;BME280;65579;45.534;6.212;2023-03-01T03:18:16;98375.02;;;-1.15;47.49
76660;BME280;65579;45.534;6.212;2023-03-01T03:20:41;98374.93;;;-1.97;49.23
76660;BME280;65579;45.534;6.212;2023-03-01T03:23:06;98377.10;;;-1.75;49.11
76660;BME280;65579;45.534;6.212;2023-03-01T03:25:32;98371.84;;;-1.63;49.08
76660;BME280;65579;45.534;6.212;2023-03-01T03:27:57;98366.54;;;-1.54;48.38
76660;BME280;65579;45.534;6.212;2023-03-01T03:30:24;98366.42;;;-1.32;47.76
76660;BME280;65579;45.534;6.212;2023-03-01T03:32:48;98362.90;;;-1.55;47.93
76660;BME280;65579;45.534;6.212;2023-03-01T03:35:13;98363.50;;;-1.14;47.67
76660;BME280;65579;45.534;6.212;2023-03-01T03:37:39;98359.96;;;-0.30;46.53
76660;BME280;65579;45.534;6.212;2023-03-01T03:40:05;98359.79;;;-0.59;46.94
76660;BME280;65579;45.534;6.212;2023-03-01T03:42:29;98359.93;;;-0.22;46.77
76660;BME280;65579;45.534;6.212;2023-03-01T03:44:55;98359.86;;;-0.10;46.38
76660;BME280;65579;45.534;6.212;2023-03-01T03:47:20;98360.18;;;-0.27;47.20
76660;BME280;65579;45.534;6.212;2023-03-01T03:49:46;98358.56;;;-0.50;47.19
76660;BME280;65579;45.534;6.212;2023-03-01T03:52:12;98355.47;;;-0.92;48.97
76660;BME280;65579;45.534;6.212;2023-03-01T03:54:37;98353.76;;;-1.18;48.75
76660;BME280;65579;45.534;6.212;2023-03-01T03:57:02;98354.73;;;-0.77;48.05
76660;BME280;65579;45.534;6.212;2023-03-01T03:59:27;98355.94;;;-1.18;48.13
76660;BME280;65579;45.534;6.212;2023-03-01T04:01:53;98354.55;;;-1.16;48.42
76660;BME280;65579;45.534;6.212;2023-03-01T04:04:18;98352.76;;;-0.59;48.33
76660;BME280;65579;45.534;6.212;2023-03-01T04:06:44;98342.43;;;0.40;45.74
76660;BME280;65579;45.534;6.212;2023-03-01T04:09:10;98345.84;;;-0.59;47.31
76660;BME280;65579;45.534;6.212;2023-03-01T04:11:35;98348.39;;;-1.28;48.85
76660;BME280;65579;45.534;6.212;2023-03-01T04:14:00;98352.66;;;-1.41;49.05
76660;BME280;65579;45.534;6.212;2023-03-01T04:16:26;98348.23;;;-0.83;47.70
76660;BME280;65579;45.534;6.212;2023-03-01T04:18:51;98346.29;;;-1.05;48.24
76660;BME280;65579;45.534;6.212;2023-03-01T04:21:16;98342.59;;;-0.42;47.53
76660;BME280;65579;45.534;6.212;2023-03-01T04:23:42;98349.15;;;-0.74;48.22
76660;BME280;65579;45.534;6.212;2023-03-01T04:26:08;98344.24;;;-1.10;49.25
76660;BME280;65579;45.534;6.212;2023-03-01T04:28:36;98344.27;;;-1.03;49.39
76660;BME280;65579;45.534;6.212;2023-03-01T04:31:03;98344.43;;;-1.34;49.41
76660;BME280;65579;45.534;6.212;2023-03-01T04:33:25;98342.61;;;-0.43;47.44
76660;BME280;65579;45.534;6.212;2023-03-01T04:35:50;98347.59;;;-1.13;48.69
76660;BME280;65579;45.534;6.212;2023-03-01T04:38:16;98348.69;;;-0.62;48.18
76660;BME280;65579;45.534;6.212;2023-03-01T04:40:41;98344.64;;;-0.44;47.76
76660;BME280;65579;45.534;6.212;2023-03-01T04:43:08;98343.77;;;-0.70;47.79
76660;BME280;65579;45.534;6.212;2023-03-01T04:45:33;98339.64;;;-0.95;47.80
76660;BME280;65579;45.534;6.212;2023-03-01T04:47:58;98340.09;;;-0.15;47.51
76660;BME280;65579;45.534;6.212;2023-03-01T04:50:24;98338.61;;;-0.49;47.82
76660;BME280;65579;45.534;6.212;2023-03-01T04:52:49;98339.80;;;-1.28;48.45
76660;BME280;65579;45.534;6.212;2023-03-01T04:55:16;98336.94;;;-0.98;49.21
76660;BME280;65579;45.534;6.212;2023-03-01T04:57:41;98331.54;;;-1.17;48.77
76660;BME280;65579;45.534;6.212;2023-03-01T05:00:09;98330.16;;;-1.21;49.06
76660;BME280;65579;45.534;6.212;2023-03-01T05:02:31;98328.58;;;-0.58;48.44
76660;BME280;65579;45.534;6.212;2023-03-01T05:04:56;98324.19;;;-0.42;47.53
76660;BME280;65579;45.534;6.212;2023-03-01T05:07:22;98320.98;;;-0.31;47.99
76660;BME280;65579;45.534;6.212;2023-03-01T05:09:48;98322.42;;;-0.11;48.52
76660;BME280;65579;45.534;6.212;2023-03-01T05:12:13;98322.84;;;-0.14;47.70
76660;BME280;65579;45.534;6.212;2023-03-01T05:14:39;98325.52;;;-0.62;48.81
76660;BME280;65579;45.534;6.212;2023-03-01T05:17:04;98321.47;;;-0.07;47.21
76660;BME280;65579;45.534;6.212;2023-03-01T05:19:30;98323.36;;;-0.68;48.76
76660;BME280;65579;45.534;6.212;2023-03-01T05:21:55;98323.04;;;-0.92;49.18
76660;BME280;65579;45.534;6.212;2023-03-01T05:24:20;98320.22;;;-0.99;49.11
76660;BME280;65579;45.534;6.212;2023-03-01T05:26:45;98324.24;;;-1.13;49.33
76660;BME280;65579;45.534;6.212;2023-03-01T05:29:11;98320.39;;;-0.66;49.41
76660;BME280;65579;45.534;6.212;2023-03-01T05:31:36;98317.63;;;-0.95;48.99
76660;BME280;65579;45.534;6.212;2023-03-01T05:34:01;98319.77;;;-1.12;49.67
76660;BME280;65579;45.534;6.212;2023-03-01T05:36:27;98323.94;;;-1.10;49.44
76660;BME280;65579;45.534;6.212;2023-03-01T05:38:53;98320.86;;;-0.68;49.19
76660;BME280;65579;45.534;6.212;2023-03-01T05:41:19;98318.65;;;-0.47;48.39
76660;BME280;65579;45.534;6.212;2023-03-01T05:43:44;98312.71;;;-0.16;47.55
76660;BME280;65579;45.534;6.212;2023-03-01T05:46:10;98310.98;;;-0.11;46.92
76660;BME280;65579;45.534;6.212;2023-03-01T05:48:35;98314.72;;;-0.84;48.91
76660;BME280;65579;45.534;6.212;2023-03-01T05:51:00;98314.47;;;-0.95;48.91
76660;BME280;65579;45.534;6.212;2023-03-01T05:53:25;98313.88;;;-0.83;48.78
76660;BME280;65579;45.534;6.212;2023-03-01T05:55:51;98313.72;;;-0.54;48.77
76660;BME280;65579;45.534;6.212;2023-03-01T05:58:19;98311.39;;;-0.61;48.58
76660;BME280;65579;45.534;6.212;2023-03-01T06:00:43;98307.05;;;-0.19;47.93
76660;BME280;65579;45.534;6.212;2023-03-01T06:03:10;98310.30;;;0.38;46.76
76660;BME280;65579;45.534;6.212;2023-03-01T06:05:33;98307.91;;;-0.12;48.00
76660;BME280;65579;45.534;6.212;2023-03-01T06:08:00;98310.00;;;0.46;47.12
76660;BME280;65579;45.534;6.212;2023-03-01T06:10:24;98309.27;;;-0.46;47.94
76660;BME280;65579;45.534;6.212;2023-03-01T06:12:49;98307.30;;;-0.32;48.46
76660;BME280;65579;45.534;6.212;2023-03-01T06:15:16;98307.20;;;-0.12;48.46
76660;BME280;65579;45.534;6.212;2023-03-01T06:17:41;98308.86;;;-0.28;48.00
76660;BME280;65579;45.534;6.212;2023-03-01T06:20:07;98311.04;;;-0.11;47.75
76660;BME280;65579;45.534;6.212;2023-03-01T06:22:30;98314.71;;;0.11;48.05
76660;BME280;65579;45.534;6.212;2023-03-01T06:24:56;98315.78;;;0.05;47.87
76660;BME280;65579;45.534;6.212;2023-03-01T06:27:22;98317.44;;;0.45;47.16
76660;BME280;65579;45.534;6.212;2023-03-01T06:29:47;98319.03;;;0.87;46.51
76660;BME280;65579;45.534;6.212;2023-03-01T06:32:13;98318.33;;;1.04;45.94
76660;BME280;65579;45.534;6.212;2023-03-01T06:34:38;98315.13;;;0.26;47.30
76660;BME280;65579;45.534;6.212;2023-03-01T06:37:04;98315.74;;;0.41;46.88
76660;BME280;65579;45.534;6.212;2023-03-01T06:39:29;98322.87;;;-0.15;48.59
76660;BME280;65579;45.534;6.212;2023-03-01T06:41:55;98323.68;;;0.02;48.47
76660;BME280;65579;45.534;6.212;2023-03-01T06:44:21;98323.63;;;0.63;47.32
76660;BME280;65579;45.534;6.212;2023-03-01T06:46:46;98323.11;;;0.64;47.46
76660;BME280;65579;45.534;6.212;2023-03-01T06:49:11;98325.67;;;0.33;47.85
76660;BME280;65579;45.534;6.212;2023-03-01T06:51:37;98326.81;;;0.09;48.79
76660;BME280;65579;45.534;6.212;2023-03-01T06:54:03;98327.17;;;0.06;48.40
76660;BME280;65579;45.534;6.212;2023-03-01T06:56:28;98326.22;;;0.09;48.09
76660;BME280;65579;45.534;6.212;2023-03-01T06:58:53;98323.09;;;0.25;48.44
76660;BME280;65579;45.534;6.212;2023-03-01T07:01:19;98323.30;;;0.83;46.39
76660;BME280;65579;45.534;6.212;2023-03-01T07:03:44;98324.96;;;-0.01;48.70
76660;BME280;65579;45.534;6.212;2023-03-01T07:06:10;98322.59;;;0.35;48.60
76660;BME280;65579;45.534;6.212;2023-03-01T07:08:35;98321.38;;;0.22;48.66
76660;BME280;65579;45.534;6.212;2023-03-01T07:11:01;98318.75;;;0.14;49.27
76660;BME280;65579;45.534;6.212;2023-03-01T07:13:26;98317.61;;;0.51;50.32
76660;BME280;65579;45.534;6.212;2023-03-01T07:15:51;98317.47;;;1.68;46.65
76660;BME280;65579;45.534;6.212;2023-03-01T07:18:17;98322.16;;;1.09;46.84
76660;BME280;65579;45.534;6.212;2023-03-01T07:20:42;98321.11;;;0.22;48.57
76660;BME280;65579;45.534;6.212;2023-03-01T07:23:08;98323.47;;;0.49;47.80
76660;BME280;65579;45.534;6.212;2023-03-01T07:25:33;98323.65;;;0.19;47.69
76660;BME280;65579;45.534;6.212;2023-03-01T07:27:58;98323.36;;;0.72;47.41
76660;BME280;65579;45.534;6.212;2023-03-01T07:30:24;98325.62;;;0.45;47.47
76660;BME280;65579;45.534;6.212;2023-03-01T07:32:49;98323.04;;;1.02;47.08
76660;BME280;65579;45.534;6.212;2023-03-01T07:35:15;98320.70;;;1.31;46.56
76660;BME280;65579;45.534;6.212;2023-03-01T07:37:41;98320.07;;;0.36;47.79
76660;BME280;65579;45.534;6.212;2023-03-01T07:40:08;98318.55;;;1.67;47.05
76660;BME280;65579;45.534;6.212;2023-03-01T07:42:31;98321.43;;;1.16;47.30
76660;BME280;65579;45.534;6.212;2023-03-01T07:44:57;98316.22;;;1.38;46.87
76660;BME280;65579;45.534;6.212;2023-03-01T07:47:23;98313.81;;;1.70;45.96
76660;BME280;65579;45.534;6.212;2023-03-01T07:49:48;98310.05;;;1.28;47.37
76660;BME280;65579;45.534;6.212;2023-03-01T07:52:16;98309.72;;;0.89;47.46
76660;BME280;65579;45.534;6.212;2023-03-01T07:54:44;98309.62;;;1.38;47.63
76660;BME280;65579;45.534;6.212;2023-03-01T07:57:04;98308.31;;;1.55;47.51
76660;BME280;65579;45.534;6.212;2023-03-01T07:59:29;98308.67;;;1.61;47.16
76660;BME280;65579;45.534;6.212;2023-03-01T08:01:55;98306.98;;;1.76;46.18
76660;BME280;65579;45.534;6.212;2023-03-01T08:04:20;98310.06;;;1.42;46.68
76660;BME280;65579;45.534;6.212;2023-03-01T08:06:46;98312.11;;;1.44;46.45
76660;BME280;65579;45.534;6.212;2023-03-01T08:09:11;98312.78;;;1.56;46.82
76660;BME280;65579;45.534;6.212;2023-03-01T08:11:37;98309.91;;;1.58;47.04
76660;BME280;65579;45.534;6.212;2023-03-01T08:14:05;98306.87;;;1.36;48.08
76660;BME280;65579;45.534;6.212;2023-03-01T08:16:27;98302.40;;;0.94;47.44
76660;BME280;65579;45.534;6.212;2023-03-01T08:18:56;98297.90;;;2.01;47.75
76660;BME280;65579;45.534;6.212;2023-03-01T08:21:18;98297.52;;;2.04;46.20
76660;BME280;65579;45.534;6.212;2023-03-01T08:23:43;98301.33;;;1.28;48.06
76660;BME280;65579;45.534;6.212;2023-03-01T08:26:15;98297.48;;;2.32;46.52
76660;BME280;65579;45.534;6.212;2023-03-01T08:28:34;98298.22;;;2.32;45.88
76660;BME280;65579;45.534;6.212;2023-03-01T08:31:00;98296.30;;;2.24;46.75
76660;BME280;65579;45.534;6.212;2023-03-01T08:33:26;98293.03;;;1.85;46.34
76660;BME280;65579;45.534;6.212;2023-03-01T08:36:03;98290.71;;;2.36;47.36
76660;BME280;65579;45.534;6.212;2023-03-01T08:38:17;98289.98;;;2.73;46.44
76660;BME280;65579;45.534;6.212;2023-03-01T08:40:42;98290.14;;;2.55;45.88
76660;BME280;65579;45.534;6.212;2023-03-01T08:43:08;98289.38;;;2.75;46.22
76660;BME280;65579;45.534;6.212;2023-03-01T08:45:33;98288.82;;;2.32;46.33
76660;BME280;65579;45.534;6.212;2023-03-01T08:47:59;98287.68;;;2.91;45.72
76660;BME280;65579;45.534;6.212;2023-03-01T08:50:24;98283.68;;;3.06;45.37
76660;BME280;65579;45.534;6.212;2023-03-01T08:52:49;98283.64;;;3.03;44.98
76660;BME280;65579;45.534;6.212;2023-03-01T08:55:15;98281.03;;;3.22;44.72
76660;BME280;65579;45.534;6.212;2023-03-01T08:57:40;98284.05;;;3.12;44.54
76660;BME280;65579;45.534;6.212;2023-03-01T09:00:06;98283.04;;;3.54;44.33
76660;BME280;65579;45.534;6.212;2023-03-01T09:02:30;98284.01;;;3.03;43.95
76660;BME280;65579;45.534;6.212;2023-03-01T09:04:55;98279.95;;;2.99;42.77
76660;BME280;65579;45.534;6.212;2023-03-01T09:07:21;98280.16;;;3.70;43.49
76660;BME280;65579;45.534;6.212;2023-03-01T09:09:46;98279.48;;;4.25;43.99
76660;BME280;65579;45.534;6.212;2023-03-01T09:12:12;98281.50;;;4.23;42.33
76660;BME280;65579;45.534;6.212;2023-03-01T09:14:37;98280.68;;;4.70;42.63
76660;BME280;65579;45.534;6.212;2023-03-01T09:17:02;98280.08;;;4.62;42.50
76660;BME280;65579;45.534;6.212;2023-03-01T09:19:28;98270.16;;;4.75;40.52
76660;BME280;65579;45.534;6.212;2023-03-01T09:21:53;98271.81;;;2.76;41.79
76660;BME280;65579;45.534;6.212;2023-03-01T09:24:21;98269.12;;;4.16;41.74
76660;BME280;65579;45.534;6.212;2023-03-01T09:26:44;98271.36;;;4.42;41.58
76660;BME280;65579;45.534;6.212;2023-03-01T09:29:09;98269.28;;;4.23;41.12
76660;BME280;65579;45.534;6.212;2023-03-01T09:31:34;98261.70;;;4.09;42.85
76660;BME280;65579;45.534;6.212;2023-03-01T09:34:00;98258.62;;;3.80;42.34
76660;BME280;65579;45.534;6.212;2023-03-01T09:36:26;98259.20;;;3.30;42.74
76660;BME280;65579;45.534;6.212;2023-03-01T09:38:52;98259.33;;;3.66;43.56
76660;BME280;65579;45.534;6.212;2023-03-01T09:41:28;98257.31;;;3.27;43.45
76660;BME280;65579;45.534;6.212;2023-03-01T09:43:45;98259.77;;;3.10;43.20
76660;BME280;65579;45.534;6.212;2023-03-01T09:46:10;98259.52;;;3.30;44.86
76660;BME280;65579;45.534;6.212;2023-03-01T09:48:37;98258.05;;;3.21;43.48
76660;BME280;65579;45.534;6.212;2023-03-01T09:50:59;98254.62;;;3.94;43.19
76660;BME280;65579;45.534;6.212;2023-03-01T09:53:30;98249.90;;;4.16;44.73
76660;BME280;65579;45.534;6.212;2023-03-01T09:55:54;98248.89;;;3.81;41.98
76660;BME280;65579;45.534;6.212;2023-03-01T09:58:29;98254.62;;;2.98;45.38
76660;BME280;65579;45.534;6.212;2023-03-01T10:00:43;98253.73;;;2.52;45.11
76660;BME280;65579;45.534;6.212;2023-03-01T10:03:12;98250.85;;;3.07;45.26
76660;BME280;65579;45.534;6.212;2023-03-01T10:05:39;98251.59;;;3.24;43.86
76660;BME280;65579;45.534;6.212;2023-03-01T10:08:06;98246.06;;;4.04;44.37
76660;BME280;65579;45.534;6.212;2023-03-01T10:10:26;98246.56;;;3.59;43.23
76660;BME280;65579;45.534;6.212;2023-03-01T10:12:47;98247.31;;;3.44;43.66
76660;BME280;65579;45.534;6.212;2023-03-01T10:15:16;98237.12;;;3.80;43.12
76660;BME280;65579;45.534;6.212;2023-03-01T10:17:43;98234.81;;;3.84;43.81
76660;BME280;65579;45.534;6.212;2023-03-01T10:20:15;98236.09;;;3.09;44.05
76660;BME280;65579;45.534;6.212;2023-03-01T10:22:30;98238.90;;;3.59;45.57
76660;BME280;65579;45.534;6.212;2023-03-01T10:24:56;98236.15;;;3.29;44.00
76660;BME280;65579;45.534;6.212;2023-03-01T10:27:23;98231.74;;;3.46;44.72
76660;BME280;65579;45.534;6.212;2023-03-01T10:29:50;98230.29;;;2.95;43.37
76660;BME280;65579;45.534;6.212;2023-03-01T10:32:11;98226.66;;;3.13;42.87
76660;BME280;65579;45.534;6.212;2023-03-01T10:34:37;98225.23;;;3.66;46.95
76660;BME280;65579;45.534;6.212;2023-03-01T10:37:11;98222.98;;;4.67;42.58
76660;BME280;65579;45.534;6.212;2023-03-01T10:39:27;98219.42;;;5.86;39.03
76660;BME280;65579;45.534;6.212;2023-03-01T10:41:58;98213.85;;;4.23;42.80
76660;BME280;65579;45.534;6.212;2023-03-01T10:46:43;98220.98;;;3.44;46.63
76660;BME280;65579;45.534;6.212;2023-03-01T10:49:15;98215.90;;;4.44;40.43
76660;BME280;65579;45.534;6.212;2023-03-01T10:51:40;98205.82;;;3.63;42.50
76660;BME280;65579;45.534;6.212;2023-03-01T10:54:01;98210.40;;;4.04;43.00
76660;BME280;65579;45.534;6.212;2023-03-01T10:56:26;98209.26;;;4.28;43.28
76660;BME280;65579;45.534;6.212;2023-03-01T10:58:58;98211.65;;;4.09;43.65
76660;BME280;65579;45.534;6.212;2023-03-01T11:01:26;98204.65;;;3.81;44.10
76660;BME280;65579;45.534;6.212;2023-03-01T11:03:41;98206.18;;;3.44;43.34
76660;BME280;65579;45.534;6.212;2023-03-01T11:08:36;98201.20;;;4.48;44.19
76660;BME280;65579;45.534;6.212;2023-03-01T11:18:21;98195.75;;;3.66;43.57
76660;BME280;65579;45.534;6.212;2023-03-01T11:20:41;98190.76;;;3.66;42.65
76660;BME280;65579;45.534;6.212;2023-03-01T11:25:34;98185.94;;;4.32;43.23
76660;BME280;65579;45.534;6.212;2023-03-01T11:27:59;98180.49;;;3.87;41.76
76660;BME280;65579;45.534;6.212;2023-03-01T11:30:25;98171.78;;;3.58;43.57
76660;BME280;65579;45.534;6.212;2023-03-01T11:32:53;98170.07;;;3.82;43.45
76660;BME280;65579;45.534;6.212;2023-03-01T11:35:17;98163.38;;;3.91;43.15
76660;BME280;65579;45.534;6.212;2023-03-01T11:37:41;98161.83;;;4.31;44.27
76660;BME280;65579;45.534;6.212;2023-03-01T11:40:13;98159.91;;;4.59;41.27
76660;BME280;65579;45.534;6.212;2023-03-01T11:42:40;98150.51;;;4.44;42.03
76660;BME280;65579;45.534;6.212;2023-03-01T11:44:55;98144.50;;;4.28;40.89
76660;BME280;65579;45.534;6.212;2023-03-01T11:47:31;98135.39;;;3.70;41.32
76660;BME280;65579;45.534;6.212;2023-03-01T11:50:03;98139.33;;;3.77;43.57
76660;BME280;65579;45.534;6.212;2023-03-01T11:52:20;98137.01;;;4.03;40.73
76660;BME280;65579;45.534;6.212;2023-03-01T11:54:49;98134.78;;;4.20;42.78
76660;BME280;65579;45.534;6.212;2023-03-01T11:57:11;98126.38;;;4.20;46.16
76660;BME280;65579;45.534;6.212;2023-03-01T11:59:42;98127.10;;;3.75;45.58
76660;BME280;65579;45.534;6.212;2023-03-01T12:04:36;98124.85;;;4.36;46.91
76660;BME280;65579;45.534;6.212;2023-03-01T12:06:50;98120.75;;;4.30;41.83
76660;BME280;65579;45.534;6.212;2023-03-01T12:09:21;98112.98;;;4.44;41.46
76660;BME280;65579;45.534;6.212;2023-03-01T12:11:47;98109.60;;;3.61;44.51
76660;BME280;65579;45.534;6.212;2023-03-01T12:14:15;98112.54;;;3.71;45.27
76660;BME280;65579;45.534;6.212;2023-03-01T12:16:35;98104.03;;;4.77;42.65
76660;BME280;65579;45.534;6.212;2023-03-01T12:21:27;98092.70;;;3.48;44.66
76660;BME280;65579;45.534;6.212;2023-03-01T12:24:00;98088.54;;;4.18;39.31
76660;BME280;65579;45.534;6.212;2023-03-01T12:26:13;98085.79;;;4.64;45.23
76660;BME280;65579;45.534;6.212;2023-03-01T12:28:44;98086.83;;;4.42;42.90
76660;BME280;65579;45.534;6.212;2023-03-01T12:31:10;98078.46;;;3.83;40.44
76660;BME280;65579;45.534;6.212;2023-03-01T12:33:33;98081.73;;;4.43;43.37
76660;BME280;65579;45.534;6.212;2023-03-01T12:36:11;98068.28;;;3.40;45.54
76660;BME280;65579;45.534;6.212;2023-03-01T12:38:29;98066.81;;;4.35;43.93
76660;BME280;65579;45.534;6.212;2023-03-01T12:43:15;98068.93;;;3.93;42.34
76660;BME280;65579;45.534;6.212;2023-03-01T12:45:49;98066.64;;;4.04;44.44
76660;BME280;65579;45.534;6.212;2023-03-01T12:48:17;98060.13;;;2.88;45.86
76660;BME280;65579;45.534;6.212;2023-03-01T12:50:26;98059.60;;;3.46;43.96
76660;BME280;65579;45.534;6.212;2023-03-01T12:52:54;98058.86;;;3.67;42.09
76660;BME280;65579;45.534;6.212;2023-03-01T12:55:26;98058.26;;;4.61;39.64
76660;BME280;65579;45.534;6.212;2023-03-01T12:57:42;98048.27;;;3.49;41.39
76660;BME280;65579;45.534;6.212;2023-03-01T13:02:35;98047.77;;;3.64;45.01
76660;BME280;65579;45.534;6.212;2023-03-01T13:05:13;98043.54;;;4.13;43.65
76660;BME280;65579;45.534;6.212;2023-03-01T13:07:29;98044.69;;;3.71;47.35
76660;BME280;65579;45.534;6.212;2023-03-01T13:09:51;98051.11;;;4.47;43.59
76660;BME280;65579;45.534;6.212;2023-03-01T13:14:44;98040.76;;;4.59;39.27
76660;BME280;65579;45.534;6.212;2023-03-01T13:17:03;98036.52;;;4.13;40.93
76660;BME280;65579;45.534;6.212;2023-03-01T13:19:30;98041.44;;;4.64;38.83
76660;BME280;65579;45.534;6.212;2023-03-01T13:21:55;98036.34;;;4.63;37.79